Terminal Aerodrome Forecast
Issued by NWS

Home | Current Version | Previous Version | Text Only | Print | Product List | Glossary On
Versions: 1 2 3 4 5 6 7 8 9 10 11 12 13 14 15 16 17 18 19 20 21 22 23 24 25 26 27
000
FTUS41 KBOX 231247 AAA
TAFHYA
TAF AMD
KHYA 231247Z 2313/2412 02010KT P6SM SCT050
     FM231500 04010KT P6SM -SHRA BKN010 OVC050
     FM232200 02014G24KT P6SM -SHRA OVC010
     FM240300 01018G29KT 6SM -SHRA BR OVC008
     FM240400 36018G30KT 6SM BR OVC010=

USA.gov is the U.S. government's official web portal to all federal, state and local government web resources and services.